createdAt,value
2019-05-30T00:00:05.873Z,12.90
2019-05-30T00:02:21.826Z,12.90
2019-05-30T00:04:50.533Z,12.90
2019-05-30T00:07:19.253Z,12.80
2019-05-30T00:09:48.060Z,12.80
2019-05-30T00:12:16.806Z,12.80
2019-05-30T00:14:45.726Z,12.70
2019-05-30T00:17:14.473Z,12.70
2019-05-30T00:19:43.558Z,12.60
2019-05-30T00:22:12.368Z,12.70
2019-05-30T00:24:42.006Z,12.60
2019-05-30T00:27:11.170Z,12.60
2019-05-30T00:29:39.937Z,12.60
2019-05-30T00:32:08.653Z,12.50
2019-05-30T00:34:37.482Z,12.50
2019-05-30T00:37:06.840Z,12.50
2019-05-30T00:39:35.670Z,12.60
2019-05-30T00:42:04.638Z,12.60
2019-05-30T00:44:33.540Z,12.50
2019-05-30T00:47:02.566Z,12.40
2019-05-30T00:49:31.325Z,12.40
2019-05-30T00:52:00.551Z,12.50
2019-05-30T00:54:29.440Z,12.40
2019-05-30T00:56:58.640Z,12.30
2019-05-30T00:59:27.594Z,12.30
2019-05-30T01:01:56.580Z,12.30
2019-05-30T01:04:25.598Z,12.10
2019-05-30T01:06:54.317Z,12.10
2019-05-30T01:09:23.198Z,12.10
2019-05-30T01:11:51.958Z,12.10
2019-05-30T01:14:20.744Z,12.10
2019-05-30T01:16:49.465Z,12.00
2019-05-30T01:19:18.188Z,12.00
2019-05-30T01:21:47.247Z,11.90
2019-05-30T01:24:16.501Z,12.00
2019-05-30T01:26:45.263Z,12.00
2019-05-30T01:29:14.081Z,12.10
2019-05-30T01:31:42.784Z,12.00
2019-05-30T01:34:11.679Z,12.00
2019-05-30T01:36:40.503Z,12.00
2019-05-30T01:39:09.436Z,12.00
2019-05-30T01:41:39.199Z,12.00
2019-05-30T01:44:08.325Z,11.90
2019-05-30T01:46:37.231Z,11.90
2019-05-30T01:49:06.798Z,12.00
2019-05-30T01:51:35.854Z,12.00
2019-05-30T01:54:04.705Z,11.90
2019-05-30T01:56:33.513Z,12.00
2019-05-30T01:59:02.653Z,12.00
2019-05-30T02:01:31.676Z,12.00
2019-05-30T02:04:01.066Z,12.00
2019-05-30T02:06:30.325Z,12.00
2019-05-30T02:08:59.181Z,11.90
2019-05-30T02:11:28.284Z,11.90
2019-05-30T02:13:59.438Z,11.90
2019-05-30T02:16:28.782Z,11.70
2019-05-30T02:18:57.624Z,11.50
2019-05-30T02:21:26.678Z,11.70
2019-05-30T02:23:55.399Z,11.70
2019-05-30T02:26:24.455Z,11.70
2019-05-30T02:28:53.263Z,11.70
2019-05-30T02:31:38.651Z,11.60
2019-05-30T02:33:53.181Z,11.50
2019-05-30T02:36:21.925Z,11.50
2019-05-30T02:38:50.709Z,11.50
2019-05-30T02:41:19.475Z,11.50
2019-05-30T02:43:48.204Z,11.50
2019-05-30T02:46:17.244Z,11.50
2019-05-30T02:48:57.997Z,11.50
2019-05-30T02:51:16.643Z,11.50
2019-05-30T02:53:45.437Z,11.50
2019-05-30T02:56:14.769Z,11.50
2019-05-30T02:58:43.528Z,11.30
2019-05-30T03:01:14.598Z,11.30
2019-05-30T03:03:43.061Z,11.30
2019-05-30T03:06:13.908Z,11.40
2019-05-30T03:08:43.554Z,11.40
2019-05-30T03:11:15.226Z,11.40
2019-05-30T03:13:43.702Z,11.40
2019-05-30T03:16:13.666Z,11.40
2019-05-30T03:18:42.766Z,11.40
2019-05-30T03:21:13.462Z,11.30
2019-05-30T03:23:42.461Z,11.30
2019-05-30T03:26:13.705Z,11.30
2019-05-30T03:28:42.223Z,11.30
2019-05-30T03:31:23.017Z,11.30
2019-05-30T03:33:43.255Z,11.30
2019-05-30T03:36:24.191Z,11.30
2019-05-30T03:38:42.936Z,11.40
2019-05-30T03:41:12.182Z,11.40
2019-05-30T03:43:40.974Z,11.40
2019-05-30T03:46:16.503Z,11.50
2019-05-30T03:48:46.460Z,11.50
2019-05-30T03:51:17.047Z,11.50
2019-05-30T03:53:46.221Z,11.50
2019-05-30T03:56:19.218Z,11.60
2019-05-30T03:59:19.965Z,11.50
2019-05-30T04:02:00.160Z,11.60
2019-05-30T04:04:32.384Z,11.70
2019-05-30T04:07:06.937Z,11.80
2019-05-30T04:09:39.912Z,11.90
2019-05-30T04:12:25.118Z,12.10
2019-05-30T04:14:58.190Z,12.30
2019-05-30T04:17:30.338Z,12.30
2019-05-30T04:20:02.254Z,12.40
2019-05-30T04:22:31.254Z,12.50
2019-05-30T04:25:00.337Z,12.70
2019-05-30T04:27:29.407Z,12.90
2019-05-30T04:30:02.646Z,12.90
2019-05-30T04:32:31.731Z,13.10
2019-05-30T04:35:00.707Z,13.20
2019-05-30T04:37:29.495Z,13.30
2019-05-30T04:39:58.516Z,13.50
2019-05-30T04:42:28.200Z,13.70
2019-05-30T04:44:57.032Z,13.70
2019-05-30T04:47:27.916Z,13.80
2019-05-30T04:49:57.116Z,14.00
2019-05-30T04:52:28.689Z,14.00
2019-05-30T04:54:57.494Z,14.20
2019-05-30T04:57:27.266Z,14.30
2019-05-30T04:59:56.226Z,14.50
2019-05-30T05:02:29.444Z,14.60
2019-05-30T05:04:58.386Z,14.80
2019-05-30T05:07:28.013Z,14.90
2019-05-30T05:09:57.073Z,15.00
2019-05-30T05:12:26.201Z,15.20
2019-05-30T05:14:55.493Z,15.30
2019-05-30T05:17:31.679Z,15.40
2019-05-30T05:20:00.872Z,15.60
2019-05-30T05:22:31.729Z,15.70
2019-05-30T05:25:00.488Z,15.80
2019-05-30T05:27:29.204Z,16.00
2019-05-30T05:29:58.381Z,16.00
2019-05-30T05:32:27.464Z,16.00
2019-05-30T05:34:56.349Z,16.20
2019-05-30T05:37:25.564Z,16.40
2019-05-30T05:39:54.387Z,16.40
2019-05-30T05:42:28.266Z,16.50
2019-05-30T05:44:53.897Z,16.60
2019-05-30T05:47:22.830Z,16.70
2019-05-30T05:49:51.990Z,16.80
2019-05-30T05:52:20.781Z,16.80
2019-05-30T05:54:49.652Z,17.00
2019-05-30T05:57:18.885Z,17.10
2019-05-30T05:59:48.009Z,17.20
2019-05-30T06:02:17.620Z,17.20
2019-05-30T06:04:47.077Z,17.30
2019-05-30T06:07:16.137Z,17.40
2019-05-30T06:09:45.017Z,17.20
2019-05-30T06:12:13.805Z,17.40
2019-05-30T06:14:42.529Z,17.40
2019-05-30T06:17:11.620Z,17.60
2019-05-30T06:19:46.337Z,17.80
2019-05-30T06:22:11.787Z,17.90
2019-05-30T06:24:40.621Z,18.10
2019-05-30T06:27:09.756Z,18.20
2019-05-30T06:29:38.578Z,18.30
2019-05-30T06:32:07.495Z,18.40
2019-05-30T06:34:39.424Z,18.50
2019-05-30T06:37:06.667Z,18.70
2019-05-30T06:39:35.691Z,18.80
2019-05-30T06:42:04.595Z,19.00
2019-05-30T06:44:33.608Z,18.90
2019-05-30T06:47:02.662Z,18.70
2019-05-30T06:49:31.425Z,18.60
2019-05-30T06:52:00.407Z,18.80
2019-05-30T06:54:29.576Z,18.80
2019-05-30T06:56:58.582Z,19.00
2019-05-30T06:59:27.736Z,19.30
2019-05-30T07:01:56.519Z,19.50
2019-05-30T07:04:29.226Z,19.60
2019-05-30T07:06:58.449Z,19.60
2019-05-30T07:09:27.481Z,19.70
2019-05-30T07:11:56.247Z,19.80
2019-05-30T07:14:25.398Z,19.90
2019-05-30T07:16:54.184Z,20.00
2019-05-30T07:19:23.382Z,20.10
2019-05-30T07:21:52.516Z,20.50
2019-05-30T07:24:21.660Z,20.60
2019-05-30T07:26:50.455Z,20.90
2019-05-30T07:29:19.760Z,21.00
2019-05-30T07:31:48.801Z,21.00
2019-05-30T07:34:18.266Z,21.10
2019-05-30T07:36:47.051Z,21.50
2019-05-30T07:39:16.091Z,21.50
2019-05-30T07:41:45.248Z,21.60
2019-05-30T07:44:14.141Z,21.70
2019-05-30T07:46:42.992Z,21.80
2019-05-30T07:49:11.892Z,22.00
2019-05-30T07:51:40.670Z,22.00
2019-05-30T07:54:09.414Z,22.00
2019-05-30T07:56:38.566Z,21.90
2019-05-30T07:59:07.356Z,22.00
2019-05-30T08:01:39.647Z,21.90
2019-05-30T08:04:08.695Z,21.80
2019-05-30T08:06:37.889Z,21.60
2019-05-30T08:09:07.937Z,21.60
2019-05-30T08:11:36.800Z,21.60
2019-05-30T08:14:05.971Z,21.50
2019-05-30T08:16:35.482Z,21.60
2019-05-30T08:19:06.007Z,21.70
2019-05-30T08:21:36.194Z,21.90
2019-05-30T08:24:05.636Z,22.10
2019-05-30T08:26:34.413Z,22.20
2019-05-30T08:29:03.205Z,22.20
2019-05-30T08:31:32.511Z,22.30
2019-05-30T08:34:01.999Z,22.20
2019-05-30T08:36:30.896Z,22.30
2019-05-30T08:38:59.809Z,22.20
2019-05-30T08:41:29.139Z,22.20
2019-05-30T08:43:58.049Z,22.30
2019-05-30T08:46:26.780Z,22.30
2019-05-30T08:48:55.568Z,22.30
2019-05-30T08:51:24.292Z,22.40
2019-05-30T08:53:53.066Z,22.50
2019-05-30T08:56:21.858Z,22.60
2019-05-30T08:58:50.583Z,22.60
2019-05-30T09:01:20.373Z,22.60
2019-05-30T09:03:50.611Z,22.70
2019-05-30T09:06:19.408Z,22.50
2019-05-30T09:08:48.467Z,22.80
2019-05-30T09:11:17.263Z,22.40
2019-05-30T09:13:46.770Z,22.60
2019-05-30T09:16:15.595Z,22.60
2019-05-30T09:18:45.255Z,22.70
2019-05-30T09:21:14.496Z,22.80
2019-05-30T09:23:43.963Z,22.80
2019-05-30T09:26:13.023Z,23.10
2019-05-30T09:28:42.211Z,23.20
2019-05-30T09:31:11.195Z,23.30
2019-05-30T09:33:40.968Z,23.30
2019-05-30T09:36:13.959Z,23.30
2019-05-30T09:38:43.540Z,23.40
2019-05-30T09:41:12.516Z,23.40
2019-05-30T09:43:42.851Z,23.40
2019-05-30T09:46:11.691Z,23.50
2019-05-30T09:48:41.459Z,23.80
2019-05-30T09:51:11.059Z,24.00
2019-05-30T09:53:41.071Z,24.00
2019-05-30T09:56:10.746Z,24.00
2019-05-30T09:58:39.744Z,24.10
2019-05-30T10:01:08.641Z,24.30
2019-05-30T10:03:37.351Z,24.50
2019-05-30T10:06:06.317Z,24.80
2019-05-30T10:08:35.101Z,25.00
2019-05-30T10:11:04.085Z,25.00
2019-05-30T10:13:32.846Z,24.40
2019-05-30T10:16:01.559Z,24.20
2019-05-30T10:18:30.413Z,24.50
2019-05-30T10:20:59.502Z,24.60
2019-05-30T10:23:28.293Z,24.90
2019-05-30T10:25:57.609Z,25.10
2019-05-30T10:28:26.496Z,25.20
2019-05-30T10:30:58.920Z,25.10
2019-05-30T10:33:26.123Z,25.20
2019-05-30T10:35:54.954Z,25.40
2019-05-30T10:38:23.733Z,25.70
2019-05-30T10:40:52.503Z,26.20
2019-05-30T10:43:21.306Z,26.20
2019-05-30T10:45:51.293Z,25.90
2019-05-30T10:48:21.085Z,26.00
2019-05-30T10:50:50.524Z,26.10
2019-05-30T10:53:19.793Z,25.80
2019-05-30T10:55:49.846Z,25.50
2019-05-30T10:58:18.843Z,25.40
2019-05-30T11:00:51.840Z,25.50
2019-05-30T11:03:23.519Z,25.40
2019-05-30T11:06:20.516Z,25.50
2019-05-30T11:08:52.761Z,25.60
2019-05-30T11:11:21.567Z,25.90
2019-05-30T11:13:51.165Z,26.00
2019-05-30T11:16:20.435Z,25.80
2019-05-30T11:18:50.976Z,25.70
2019-05-30T11:21:19.660Z,25.90
2019-05-30T11:23:49.677Z,26.00
2019-05-30T11:26:19.327Z,26.00
2019-05-30T11:28:48.549Z,26.00
2019-05-30T11:31:17.365Z,25.80
2019-05-30T11:33:46.407Z,25.60
2019-05-30T11:36:18.262Z,25.60
2019-05-30T11:38:47.272Z,25.50
2019-05-30T11:41:16.180Z,25.20
2019-05-30T11:43:44.869Z,24.80
2019-05-30T11:46:14.070Z,24.60
2019-05-30T11:48:43.971Z,24.90
2019-05-30T11:51:12.813Z,24.90
2019-05-30T11:53:42.487Z,24.80
2019-05-30T11:56:11.334Z,24.80
2019-05-30T11:58:40.228Z,25.10
2019-05-30T12:01:09.284Z,25.00
2019-05-30T12:03:38.426Z,24.80
2019-05-30T12:06:07.547Z,25.00
2019-05-30T12:08:36.255Z,25.50
2019-05-30T12:11:05.025Z,25.60
2019-05-30T12:13:33.764Z,25.60
2019-05-30T12:16:02.781Z,25.80
2019-05-30T12:18:31.928Z,26.20
2019-05-30T12:21:01.883Z,26.20
2019-05-30T12:23:31.007Z,26.20
2019-05-30T12:26:00.323Z,26.20
2019-05-30T12:28:29.475Z,26.00
2019-05-30T12:31:03.239Z,25.90
2019-05-30T12:33:28.955Z,24.80
2019-05-30T12:35:58.533Z,24.80
2019-05-30T12:38:27.441Z,25.20
2019-05-30T12:40:56.751Z,25.70
2019-05-30T12:43:25.670Z,25.50
2019-05-30T12:45:54.925Z,25.70
2019-05-30T12:48:23.828Z,25.90
2019-05-30T12:50:53.191Z,25.60
2019-05-30T12:53:22.159Z,25.60
2019-05-30T12:55:51.452Z,25.60
2019-05-30T12:58:20.572Z,25.60
2019-05-30T13:00:49.829Z,24.80
2019-05-30T13:03:18.955Z,25.20
2019-05-30T13:05:47.712Z,25.10
2019-05-30T13:08:21.604Z,25.00
2019-05-30T13:10:47.200Z,25.20
2019-05-30T13:13:15.970Z,24.60
2019-05-30T13:15:44.712Z,25.10
2019-05-30T13:18:13.536Z,25.30
2019-05-30T13:20:42.570Z,25.10
2019-05-30T13:23:11.337Z,24.90
2019-05-30T13:25:40.151Z,24.60
2019-05-30T13:28:08.844Z,24.30
2019-05-30T13:30:37.764Z,24.10
2019-05-30T13:33:06.957Z,23.90
2019-05-30T13:35:35.903Z,24.20
2019-05-30T13:38:05.331Z,24.10
2019-05-30T13:40:34.443Z,24.30
2019-05-30T13:43:03.980Z,24.30
2019-05-30T13:45:36.628Z,24.40
2019-05-30T13:48:06.613Z,24.00
2019-05-30T13:50:35.491Z,24.10
2019-05-30T13:53:05.323Z,23.30
2019-05-30T13:55:34.156Z,23.50
2019-05-30T13:58:03.628Z,23.70
2019-05-30T14:00:32.667Z,23.10
2019-05-30T14:03:02.259Z,23.00
2019-05-30T14:05:31.208Z,23.00
2019-05-30T14:08:00.009Z,23.10
2019-05-30T14:10:28.880Z,22.90
2019-05-30T14:12:57.572Z,23.10
2019-05-30T14:15:27.176Z,23.20
2019-05-30T14:17:58.290Z,23.10
2019-05-30T14:20:27.446Z,23.40
2019-05-30T14:22:56.180Z,23.70
2019-05-30T14:25:24.903Z,23.90
2019-05-30T14:27:53.655Z,24.20
2019-05-30T14:30:23.239Z,24.20
2019-05-30T14:32:52.196Z,24.40
2019-05-30T14:35:21.265Z,24.50
2019-05-30T14:37:49.994Z,24.40
2019-05-30T14:40:19.677Z,24.40
2019-05-30T14:42:48.477Z,24.60
2019-05-30T14:45:18.873Z,24.80
2019-05-30T14:47:47.911Z,24.70
2019-05-30T14:50:17.420Z,24.80
2019-05-30T14:52:46.958Z,24.80
2019-05-30T14:55:17.335Z,24.80
2019-05-30T14:57:46.314Z,24.90
2019-05-30T15:00:17.794Z,25.00
2019-05-30T15:02:47.418Z,25.00
2019-05-30T15:05:16.979Z,25.00
2019-05-30T15:07:45.731Z,25.10
2019-05-30T15:10:15.228Z,24.90
2019-05-30T15:12:44.071Z,25.00
2019-05-30T15:15:16.632Z,25.10
2019-05-30T15:17:44.439Z,25.10
2019-05-30T15:20:15.425Z,25.40
2019-05-30T15:22:44.224Z,25.60
2019-05-30T15:25:16.454Z,26.00
2019-05-30T15:27:44.593Z,26.50
2019-05-30T15:30:14.812Z,26.80
2019-05-30T15:32:43.694Z,26.90
2019-05-30T15:35:13.169Z,26.60
2019-05-30T15:37:42.460Z,26.40
2019-05-30T15:40:13.048Z,26.20
2019-05-30T15:42:42.092Z,26.00
2019-05-30T15:45:12.008Z,25.70
2019-05-30T15:47:40.942Z,25.20
2019-05-30T15:50:13.592Z,24.80
2019-05-30T15:52:42.457Z,25.00
2019-05-30T15:55:13.200Z,25.10
2019-05-30T15:57:42.770Z,25.10
2019-05-30T16:00:16.091Z,25.30
2019-05-30T16:02:45.029Z,25.50
2019-05-30T16:05:14.712Z,25.40
2019-05-30T16:07:44.382Z,25.50
2019-05-30T16:10:13.372Z,25.40
2019-05-30T16:12:42.200Z,25.50
2019-05-30T16:15:11.779Z,25.50
2019-05-30T16:17:40.773Z,25.10
2019-05-30T16:20:11.749Z,25.10
2019-05-30T16:22:41.235Z,24.90
2019-05-30T16:25:13.836Z,24.80
2019-05-30T16:27:42.615Z,24.80
2019-05-30T16:30:18.358Z,24.90
2019-05-30T16:32:43.557Z,24.90
2019-05-30T16:35:12.444Z,25.00
2019-05-30T16:37:41.466Z,24.70
2019-05-30T16:40:10.627Z,24.60
2019-05-30T16:42:39.358Z,24.60
2019-05-30T16:45:10.027Z,24.60
2019-05-30T16:47:38.948Z,24.50
2019-05-30T16:50:08.023Z,24.70
2019-05-30T16:52:37.055Z,24.60
2019-05-30T16:55:06.486Z,24.40
2019-05-30T16:57:35.468Z,24.40
2019-05-30T17:00:06.042Z,24.00
2019-05-30T17:02:34.802Z,24.30
2019-05-30T17:05:04.668Z,24.40
2019-05-30T17:07:33.514Z,24.50
2019-05-30T17:10:02.372Z,24.10
2019-05-30T17:12:31.419Z,24.20
2019-05-30T17:15:00.756Z,24.10
2019-05-30T17:17:29.549Z,24.00
2019-05-30T17:19:58.334Z,23.90
2019-05-30T17:22:30.276Z,24.10
2019-05-30T17:24:58.063Z,24.10
2019-05-30T17:27:26.916Z,24.20
2019-05-30T17:29:55.915Z,24.20
2019-05-30T17:32:25.876Z,24.20
2019-05-30T17:34:54.723Z,24.30
2019-05-30T17:37:24.502Z,24.40
2019-05-30T17:39:53.472Z,24.20
2019-05-30T17:42:22.779Z,24.30
2019-05-30T17:44:51.604Z,24.40
2019-05-30T17:47:23.290Z,24.00
2019-05-30T17:49:52.281Z,24.00
2019-05-30T17:52:21.742Z,24.20
2019-05-30T17:54:50.654Z,24.20
2019-05-30T17:57:19.975Z,24.30
2019-05-30T17:59:48.823Z,24.40
2019-05-30T18:02:17.595Z,24.00
2019-05-30T18:04:46.317Z,24.00
2019-05-30T18:07:15.097Z,23.80
2019-05-30T18:09:43.841Z,24.00
2019-05-30T18:12:12.872Z,23.60
2019-05-30T18:14:42.047Z,23.60
2019-05-30T18:17:11.264Z,23.70
2019-05-30T18:19:42.644Z,23.60
2019-05-30T18:22:11.714Z,23.50
2019-05-30T18:24:40.901Z,23.40
2019-05-30T18:27:09.613Z,23.20
2019-05-30T18:29:38.332Z,23.30
2019-05-30T18:32:07.119Z,23.30
2019-05-30T18:34:35.960Z,23.30
2019-05-30T18:37:04.772Z,23.30
2019-05-30T18:39:33.545Z,23.30
2019-05-30T18:42:02.267Z,23.20
2019-05-30T18:44:32.821Z,23.10
2019-05-30T18:47:01.657Z,23.20
2019-05-30T18:49:34.744Z,22.90
2019-05-30T18:52:04.935Z,22.80
2019-05-30T18:54:33.752Z,22.80
2019-05-30T18:57:02.803Z,22.80
2019-05-30T18:59:31.532Z,22.80
2019-05-30T19:02:00.679Z,22.80
2019-05-30T19:04:29.603Z,22.60
2019-05-30T19:06:58.460Z,22.50
2019-05-30T19:09:27.166Z,22.40
2019-05-30T19:11:56.215Z,22.50
2019-05-30T19:14:29.400Z,22.50
2019-05-30T19:16:55.605Z,22.60
2019-05-30T19:19:25.870Z,22.60
2019-05-30T19:21:54.938Z,22.30
2019-05-30T19:24:23.655Z,22.20
2019-05-30T19:26:52.432Z,22.30
2019-05-30T19:29:21.137Z,22.30
2019-05-30T19:31:49.941Z,22.20
2019-05-30T19:34:21.595Z,22.00
2019-05-30T19:36:50.783Z,22.00
2019-05-30T19:39:19.788Z,21.90
2019-05-30T19:41:56.669Z,21.80
2019-05-30T19:44:20.037Z,21.90
2019-05-30T19:46:48.767Z,22.00
2019-05-30T19:49:17.730Z,22.10
2019-05-30T19:51:46.457Z,22.10
2019-05-30T19:54:15.232Z,22.20
2019-05-30T19:56:43.997Z,22.20
2019-05-30T19:59:12.860Z,22.10
2019-05-30T20:01:41.756Z,22.10
2019-05-30T20:04:10.734Z,22.10
2019-05-30T20:06:41.078Z,22.20
2019-05-30T20:09:09.804Z,22.20
2019-05-30T20:11:39.333Z,22.10
2019-05-30T20:14:08.554Z,22.10
2019-05-30T20:16:37.885Z,22.10
2019-05-30T20:19:06.980Z,22.20
2019-05-30T20:21:35.791Z,22.30
2019-05-30T20:24:04.867Z,22.20
2019-05-30T20:26:34.421Z,22.20
2019-05-30T20:29:03.788Z,22.20
2019-05-30T20:31:33.370Z,22.20
2019-05-30T20:34:02.513Z,22.20
2019-05-30T20:36:31.336Z,22.20
2019-05-30T20:39:00.107Z,22.20
2019-05-30T20:41:28.851Z,22.20
2019-05-30T20:43:57.863Z,22.20
2019-05-30T20:46:26.662Z,22.20
2019-05-30T20:48:55.504Z,22.20
2019-05-30T20:51:24.243Z,22.20
2019-05-30T20:53:54.739Z,22.10
2019-05-30T20:56:23.795Z,22.10
2019-05-30T20:58:52.564Z,22.10
2019-05-30T21:01:23.144Z,22.10
2019-05-30T21:03:52.244Z,22.10
2019-05-30T21:06:21.600Z,22.10
2019-05-30T21:08:51.449Z,22.10
2019-05-30T21:11:20.612Z,22.10
2019-05-30T21:13:52.811Z,21.80
2019-05-30T21:16:24.143Z,21.90
2019-05-30T21:18:53.159Z,21.90
2019-05-30T21:21:22.648Z,21.90
2019-05-30T21:23:51.401Z,22.00
2019-05-30T21:26:20.099Z,22.00
2019-05-30T21:28:48.855Z,21.90
2019-05-30T21:31:17.912Z,21.90
2019-05-30T21:33:48.259Z,21.90
2019-05-30T21:36:17.984Z,22.00
2019-05-30T21:38:46.763Z,21.90
2019-05-30T21:41:16.408Z,21.80
2019-05-30T21:43:45.389Z,21.70
2019-05-30T21:46:14.680Z,21.50
2019-05-30T21:48:43.477Z,21.30
2019-05-30T21:51:12.184Z,21.30
2019-05-30T21:53:41.471Z,21.20
2019-05-30T21:56:12.895Z,21.20
2019-05-30T21:58:42.155Z,21.00
2019-05-30T22:01:36.638Z,20.90
2019-05-30T22:04:07.102Z,21.00
2019-05-30T22:06:36.428Z,20.80
2019-05-30T22:09:09.565Z,20.80
2019-05-30T22:11:38.553Z,20.90
2019-05-30T22:14:07.749Z,21.00
2019-05-30T22:16:36.538Z,21.10
2019-05-30T22:19:05.729Z,21.10
2019-05-30T22:21:34.514Z,21.10
2019-05-30T22:24:03.714Z,21.00
2019-05-30T22:26:32.832Z,20.90
2019-05-30T22:29:01.859Z,20.90
2019-05-30T22:31:30.605Z,20.80
2019-05-30T22:33:59.379Z,20.80
2019-05-30T22:36:28.387Z,20.70
2019-05-30T22:38:57.184Z,20.70
2019-05-30T22:41:25.935Z,20.60
2019-05-30T22:43:55.463Z,20.20
2019-05-30T22:46:24.183Z,20.20
2019-05-30T22:48:53.087Z,20.20
2019-05-30T22:51:22.174Z,20.10
2019-05-30T22:53:51.188Z,20.00
2019-05-30T22:56:20.273Z,19.80
2019-05-30T22:58:50.211Z,19.70
2019-05-30T23:01:19.181Z,19.70
2019-05-30T23:03:49.062Z,19.60
2019-05-30T23:06:18.084Z,19.60
2019-05-30T23:08:48.420Z,19.50
2019-05-30T23:11:17.356Z,19.50
2019-05-30T23:13:46.215Z,19.60
2019-05-30T23:16:15.216Z,19.50
2019-05-30T23:18:43.947Z,19.60
2019-05-30T23:21:12.648Z,19.50
2019-05-30T23:23:42.400Z,19.50
2019-05-30T23:26:11.287Z,19.40
2019-05-30T23:28:40.013Z,19.40
2019-05-30T23:31:08.779Z,19.40
2019-05-30T23:33:37.510Z,19.30
2019-05-30T23:36:06.222Z,19.30
2019-05-30T23:38:34.947Z,19.30
2019-05-30T23:41:06.958Z,19.20
2019-05-30T23:43:35.732Z,19.20
2019-05-30T23:46:04.755Z,19.20
2019-05-30T23:48:33.478Z,19.20
2019-05-30T23:51:02.527Z,19.20
2019-05-30T23:53:31.234Z,19.30
2019-05-30T23:56:00.609Z,19.30
2019-05-30T23:58:29.661Z,19.30
